Maloyaroslavets, Russia
Current Conditions -  °F | °C
As of 4:30 PM on Thursday 23 Oct 2014 (Local Time) from UUWW Reporting Station
Few Clouds Few Clouds  
Wind Chill:   Ceiling: Unl
Heat Index: 19°   Visibility: 6mi
Dew Point:   Wind: 13mph
Humidity: 63%   Direction: 340°NNW
Pressure: 30.33"   Gusts: NA
Location:  55.01°N, 36.47°E
Report Text: UUWW 231330Z 34006MPS 9999 FEW026 M07/M13 Q1027 01190045 NOSIG
Loading
Personal Weather Stations






























Interactive Weather Map
Tropical Storm Tracking
New forecast layout! Learn more

10-Day Weather Forecast

Advertisements
Track Severe Weather on mobile